Time;durP1;ratioP1;P1;durP2;ratioP2;P2;SDS_P1;SDS_P2;PMS_P1;PMS_P2;Temp;Humidity;BMP_temperature;BMP_pressure;BME280_temperature;BME280_humidity;BME280_pressure;Samples;Min_cycle;Max_cycle;Signal;HPM_P1;HPM_P2
2022/09/06 00:02:10;;;;;;;;;;;19.30;99.90;;;;;;4898522;29;20376;-92
2022/09/06 00:04:36;;;;;;;;;;;19.30;99.90;;;;;;4898735;29;20034;-90
2022/09/06 00:07:01;;;;;;;;;;;19.30;99.90;;;;;;4899014;29;19927;-91
2022/09/06 00:09:27;;;;;;;;;;;19.30;99.90;;;;;;4898378;29;19957;-91
2022/09/06 00:11:52;;;;;;;;;;;19.20;99.90;;;;;;4914606;29;19931;-91
2022/09/06 00:14:18;;;;;;;;;;;19.20;99.90;;;;;;4902599;29;20025;-89
2022/09/06 00:16:44;;;;;;;;;;;19.20;99.90;;;;;;4919607;29;20348;-89
2022/09/06 00:19:09;;;;;;;;;;;19.20;99.90;;;;;;4904719;29;19978;-90
2022/09/06 00:21:35;;;;;;;;;;;19.30;99.90;;;;;;4904986;29;19927;-90
2022/09/06 00:24:00;;;;;;;;;;;19.30;99.90;;;;;;4920260;29;19983;-88
2022/09/06 00:26:26;;;;;;;;;;;19.20;99.90;;;;;;4905601;29;19935;-86
2022/09/06 00:28:51;;;;;;;;;;;19.20;99.90;;;;;;4903866;29;19934;-91
2022/09/06 00:31:18;;;;;;;;;;;19.10;99.90;;;;;;4903907;29;19927;-90
2022/09/06 00:33:44;;;;;;;;;;;19.10;99.90;;;;;;4918064;29;19999;-89
2022/09/06 00:36:09;;;;;;;;;;;19.00;99.90;;;;;;4901432;29;19977;-88
2022/09/06 00:38:35;;;;;;;;;;;18.90;99.90;;;;;;4897683;29;19979;-90
2022/09/06 00:41:01;;;;;;;;;;;18.90;99.90;;;;;;4898282;29;19934;-90
2022/09/06 00:43:26;;;;;;;;;;;18.90;99.90;;;;;;4916649;29;19927;-91
2022/09/06 00:45:52;;;;;;;;;;;18.90;99.90;;;;;;4916563;29;19971;-91
2022/09/06 00:48:17;;;;;;;;;;;18.80;99.90;;;;;;4901613;29;19927;-91
2022/09/06 00:50:43;;;;;;;;;;;18.80;99.90;;;;;;4917188;29;19927;-89
2022/09/06 00:53:09;;;;;;;;;;;18.80;99.90;;;;;;4900507;29;19979;-92
2022/09/06 00:55:34;;;;;;;;;;;18.80;99.90;;;;;;4906059;29;19935;-90
2022/09/06 00:58:00;;;;;;;;;;;18.80;99.90;;;;;;4910401;29;19938;-90
2022/09/06 01:00:25;;;;;;;;;;;18.70;99.90;;;;;;4882280;29;19931;-91
2022/09/06 01:02:51;;;;;;;;;;;18.70;99.90;;;;;;4909040;29;19931;-89
2022/09/06 01:05:16;;;;;;;;;;;18.60;99.90;;;;;;4891506;29;19985;-89
2022/09/06 01:07:54;;;;;;;;;;;18.60;99.90;;;;;;4893164;29;19927;-91
2022/09/06 01:10:27;;;;;;;;;;;18.50;99.90;;;;;;4927744;29;19955;-90
2022/09/06 01:13:00;;;;;;;;;;;18.50;99.90;;;;;;4931499;29;20071;-90
2022/09/06 01:15:44;;;;;;;;;;;18.40;99.90;;;;;;4902529;29;19931;-92
2022/09/06 01:18:22;;;;;;;;;;;18.40;99.90;;;;;;4911580;29;20312;-89
2022/09/06 01:20:52;;;;;;;;;;;18.40;99.90;;;;;;4891037;29;20019;-92
2022/09/06 01:23:36;;;;;;;;;;;18.30;99.90;;;;;;4883599;29;19927;-91
2022/09/06 01:26:02;;;;;;;;;;;18.30;99.90;;;;;;4897440;29;19931;-89
2022/09/06 01:28:41;;;;;;;;;;;18.30;99.90;;;;;;4901034;29;20003;-90
2022/09/06 01:31:25;;;;;;;;;;;18.30;99.90;;;;;;4896870;29;19931;-89
2022/09/06 01:34:06;;;;;;;;;;;18.30;99.90;;;;;;4896760;29;19928;-88
2022/09/06 01:36:35;;;;;;;;;;;18.20;99.90;;;;;;4901146;29;19986;-86
2022/09/06 01:39:01;;;;;;;;;;;18.10;99.90;;;;;;4899293;29;19931;-89
2022/09/06 01:41:26;;;;;;;;;;;18.20;99.90;;;;;;4881627;29;19927;-88
2022/09/06 01:43:52;;;;;;;;;;;18.10;99.90;;;;;;4896323;29;19931;-88
2022/09/06 01:46:23;;;;;;;;;;;18.10;99.90;;;;;;4866071;29;19950;-90
2022/09/06 01:48:49;;;;;;;;;;;18.00;99.90;;;;;;4896660;29;19927;-87
2022/09/06 01:51:22;;;;;;;;;;;17.90;99.90;;;;;;4896785;29;20280;-90
2022/09/06 01:53:47;;;;;;;;;;;18.00;99.90;;;;;;4895574;29;19932;-90
2022/09/06 01:56:19;;;;;;;;;;;18.00;99.90;;;;;;4896428;29;19949;-89
2022/09/06 01:58:55;;;;;;;;;;;18.00;99.90;;;;;;4897561;29;20010;-89
2022/09/06 02:01:24;;;;;;;;;;;17.90;99.90;;;;;;4881732;29;20074;-91
2022/09/06 02:03:49;;;;;;;;;;;17.90;99.90;;;;;;4896290;29;20014;-90
2022/09/06 02:06:23;;;;;;;;;;;18.20;99.90;;;;;;4896647;29;20337;-89
2022/09/06 02:08:49;;;;;;;;;;;17.90;99.90;;;;;;4880740;29;20304;-89
2022/09/06 02:11:15;;;;;;;;;;;17.90;99.90;;;;;;4897093;29;19974;-90
2022/09/06 02:13:45;;;;;;;;;;;18.10;99.90;;;;;;4881083;29;19978;-89
2022/09/06 02:16:11;;;;;;;;;;;18.00;99.90;;;;;;4896194;29;19927;-91
2022/09/06 02:18:39;;;;;;;;;;;18.00;99.90;;;;;;4880711;29;20710;-90
2022/09/06 02:21:04;;;;;;;;;;;17.90;99.90;;;;;;4896285;29;19931;-92
2022/09/06 02:23:32;;;;;;;;;;;17.90;99.90;;;;;;4881038;29;19934;-91
2022/09/06 02:25:58;;;;;;;;;;;17.90;99.90;;;;;;4880114;29;20300;-89
2022/09/06 02:28:24;;;;;;;;;;;17.90;99.90;;;;;;4880815;29;20026;-91
2022/09/06 02:30:50;;;;;;;;;;;17.80;99.90;;;;;;4896233;29;20044;-89
2022/09/06 02:33:17;;;;;;;;;;;17.90;99.90;;;;;;4864946;29;19983;-89
2022/09/06 02:35:43;;;;;;;;;;;17.90;99.90;;;;;;4880418;29;20291;-84
2022/09/06 02:38:09;;;;;;;;;;;17.90;99.90;;;;;;4882890;29;19958;-89
2022/09/06 02:40:36;;;;;;;;;;;17.90;99.90;;;;;;4903850;29;20292;-91
2022/09/06 02:43:01;;;;;;;;;;;17.90;99.90;;;;;;4896785;29;19927;-91
2022/09/06 02:45:27;;;;;;;;;;;17.90;99.90;;;;;;4889318;29;19943;-92
2022/09/06 02:47:52;;;;;;;;;;;17.90;99.90;;;;;;4899676;29;19937;-90
2022/09/06 02:50:18;;;;;;;;;;;17.90;99.90;;;;;;4882081;29;19994;-89
2022/09/06 02:52:43;;;;;;;;;;;17.90;99.90;;;;;;4902337;29;19960;-88
2022/09/06 02:55:10;;;;;;;;;;;17.90;99.90;;;;;;4899447;29;19986;-89
2022/09/06 02:57:35;;;;;;;;;;;17.90;99.90;;;;;;4898176;29;19931;-90
2022/09/06 03:00:01;;;;;;;;;;;17.80;99.90;;;;;;4895965;29;20281;-91
2022/09/06 03:02:27;;;;;;;;;;;17.80;99.90;;;;;;4880574;29;20431;-91
2022/09/06 03:04:52;;;;;;;;;;;17.70;99.90;;;;;;4897343;29;19928;-89
2022/09/06 03:07:18;;;;;;;;;;;17.70;99.90;;;;;;4896338;29;19927;-91
2022/09/06 03:09:44;;;;;;;;;;;17.70;99.90;;;;;;4896253;29;19986;-91
2022/09/06 03:12:09;;;;;;;;;;;17.70;99.90;;;;;;4895369;29;19931;-91
2022/09/06 03:14:35;;;;;;;;;;;17.70;99.90;;;;;;4896648;29;20289;-91
2022/09/06 03:17:01;;;;;;;;;;;17.60;99.90;;;;;;4878940;29;19939;-90
2022/09/06 03:19:26;;;;;;;;;;;17.60;99.90;;;;;;4895887;29;19934;-90
2022/09/06 03:21:52;;;;;;;;;;;17.60;99.90;;;;;;4879748;29;19928;-91
2022/09/06 03:24:18;;;;;;;;;;;17.60;99.90;;;;;;4882963;29;20026;-91
2022/09/06 03:26:43;;;;;;;;;;;17.60;99.90;;;;;;4880225;29;20364;-90
2022/09/06 03:29:09;;;;;;;;;;;17.50;99.90;;;;;;4895101;29;20455;-90
2022/09/06 03:31:34;;;;;;;;;;;17.50;99.90;;;;;;4879872;29;19955;-91
2022/09/06 03:34:00;;;;;;;;;;;17.50;99.90;;;;;;4895827;29;20038;-89
2022/09/06 03:36:25;;;;;;;;;;;17.50;99.90;;;;;;4895340;29;19983;-90
2022/09/06 03:38:52;;;;;;;;;;;17.50;99.90;;;;;;4894868;29;19932;-87
2022/09/06 03:41:18;;;;;;;;;;;17.40;99.90;;;;;;4902768;29;19928;-89
2022/09/06 03:43:44;;;;;;;;;;;17.40;99.90;;;;;;4903396;29;19949;-91
2022/09/06 03:46:09;;;;;;;;;;;17.40;99.90;;;;;;4903565;29;20400;-91
2022/09/06 03:48:35;;;;;;;;;;;17.40;99.90;;;;;;4902898;29;20258;-92
2022/09/06 03:51:00;;;;;;;;;;;17.40;99.90;;;;;;4872729;29;20066;-90
2022/09/06 03:53:26;;;;;;;;;;;17.40;99.90;;;;;;4887327;29;20018;-90
2022/09/06 03:55:52;;;;;;;;;;;17.40;99.90;;;;;;4880586;29;19931;-89
2022/09/06 03:58:18;;;;;;;;;;;17.40;99.90;;;;;;4896485;29;20372;-92
2022/09/06 04:00:44;;;;;;;;;;;17.40;99.90;;;;;;4880746;29;19927;-90
2022/09/06 04:03:09;;;;;;;;;;;17.40;99.90;;;;;;4895772;29;19928;-90
2022/09/06 04:05:35;;;;;;;;;;;17.50;99.90;;;;;;4895489;29;20444;-88
2022/09/06 04:08:01;;;;;;;;;;;17.50;99.90;;;;;;4879471;29;20641;-90
2022/09/06 04:10:26;;;;;;;;;;;17.50;99.90;;;;;;4895084;29;20014;-91
2022/09/06 04:12:52;;;;;;;;;;;17.40;99.90;;;;;;4895609;29;19954;-90
2022/09/06 04:15:18;;;;;;;;;;;17.30;99.90;;;;;;4864344;29;20392;-89
2022/09/06 04:17:46;;;;;;;;;;;17.40;99.90;;;;;;4897999;29;19950;-91
2022/09/06 04:20:12;;;;;;;;;;;17.50;99.90;;;;;;4898197;29;19931;-90
2022/09/06 04:22:38;;;;;;;;;;;17.60;99.90;;;;;;4899794;29;19946;-91
2022/09/06 04:25:03;;;;;;;;;;;17.60;99.90;;;;;;4882802;29;19935;-90
2022/09/06 04:27:29;;;;;;;;;;;17.60;99.90;;;;;;4882843;29;20029;-89
2022/09/06 04:29:55;;;;;;;;;;;17.60;99.90;;;;;;4899709;29;19934;-90
2022/09/06 04:32:21;;;;;;;;;;;17.60;99.90;;;;;;4898170;29;19928;-89
2022/09/06 04:34:46;;;;;;;;;;;17.50;99.90;;;;;;4898264;29;19928;-90
2022/09/06 04:37:16;;;;;;;;;;;17.50;99.90;;;;;;4882537;29;20467;-90
2022/09/06 04:39:42;;;;;;;;;;;17.50;99.90;;;;;;4883523;29;19927;-91
2022/09/06 04:42:08;;;;;;;;;;;17.50;99.90;;;;;;4898289;29;19932;-90
2022/09/06 04:44:33;;;;;;;;;;;17.50;99.90;;;;;;4891314;29;19939;-90
2022/09/06 04:47:03;;;;;;;;;;;17.50;99.90;;;;;;4898288;29;19932;-90
2022/09/06 04:49:28;;;;;;;;;;;17.60;99.90;;;;;;4882748;29;19932;-90
2022/09/06 04:51:54;;;;;;;;;;;17.50;99.90;;;;;;4882480;29;19953;-90
2022/09/06 04:54:19;;;;;;;;;;;17.60;99.90;;;;;;4881604;29;19982;-90
2022/09/06 04:56:45;;;;;;;;;;;17.60;99.90;;;;;;4897867;29;19975;-90
2022/09/06 04:59:11;;;;;;;;;;;17.60;99.90;;;;;;4897437;29;19934;-92
2022/09/06 05:01:36;;;;;;;;;;;17.50;99.90;;;;;;4897952;29;19966;-90
2022/09/06 05:04:02;;;;;;;;;;;17.50;99.90;;;;;;4897038;29;19932;-89
2022/09/06 05:06:27;;;;;;;;;;;17.50;99.90;;;;;;4882193;29;20369;-88
2022/09/06 05:08:53;;;;;;;;;;;17.50;99.90;;;;;;4897541;29;20299;-90
2022/09/06 05:11:18;;;;;;;;;;;17.60;99.90;;;;;;4900179;29;20396;-90
2022/09/06 05:13:44;;;;;;;;;;;17.50;99.90;;;;;;4898063;29;20039;-90
2022/09/06 05:16:10;;;;;;;;;;;17.50;99.90;;;;;;4897530;29;19931;-89
2022/09/06 05:18:36;;;;;;;;;;;17.60;99.90;;;;;;4897890;29;19938;-90
2022/09/06 05:21:02;;;;;;;;;;;17.60;99.90;;;;;;4882526;29;19927;-91
2022/09/06 05:23:27;;;;;;;;;;;17.50;99.90;;;;;;4897481;29;19935;-90
2022/09/06 05:25:53;;;;;;;;;;;17.50;99.90;;;;;;4896996;29;19950;-92
2022/09/06 05:28:19;;;;;;;;;;;17.50;99.90;;;;;;4880556;29;19966;-91
2022/09/06 05:30:44;;;;;;;;;;;17.50;99.90;;;;;;4881723;29;19995;-89
2022/09/06 05:33:10;;;;;;;;;;;17.40;99.90;;;;;;4881184;29;19939;-91
2022/09/06 05:35:36;;;;;;;;;;;17.30;99.90;;;;;;4905568;29;20010;-90
2022/09/06 05:38:01;;;;;;;;;;;17.30;99.90;;;;;;4912590;29;19935;-89
2022/09/06 05:40:27;;;;;;;;;;;17.20;99.90;;;;;;4892833;29;19928;-88
2022/09/06 05:42:52;;;;;;;;;;;17.20;99.90;;;;;;4891880;29;20246;-90
2022/09/06 05:45:18;;;;;;;;;;;17.20;99.90;;;;;;4909594;29;19991;-91
2022/09/06 05:47:43;;;;;;;;;;;17.10;99.90;;;;;;4907763;29;19928;-91
2022/09/06 05:50:09;;;;;;;;;;;17.10;99.90;;;;;;4904861;29;20397;-90
2022/09/06 05:52:35;;;;;;;;;;;17.00;99.90;;;;;;4888260;29;19927;-92
2022/09/06 05:55:01;;;;;;;;;;;17.00;99.90;;;;;;4901753;29;19946;-90
2022/09/06 05:57:26;;;;;;;;;;;17.00;99.90;;;;;;4882695;29;20077;-92
2022/09/06 05:59:52;;;;;;;;;;;17.00;99.90;;;;;;4873607;29;19931;-91
2022/09/06 06:02:19;;;;;;;;;;;17.10;99.90;;;;;;4885834;29;19935;-92
2022/09/06 06:04:44;;;;;;;;;;;17.10;99.90;;;;;;4898886;29;19962;-92
2022/09/06 06:07:10;;;;;;;;;;;17.10;99.90;;;;;;4897638;29;20440;-93
2022/09/06 06:09:36;;;;;;;;;;;17.10;99.90;;;;;;4898556;29;20380;-91
2022/09/06 06:12:01;;;;;;;;;;;17.20;99.90;;;;;;4903675;29;19931;-90
2022/09/06 06:14:27;;;;;;;;;;;17.20;99.90;;;;;;4902750;29;19931;-91
2022/09/06 06:16:52;;;;;;;;;;;17.30;99.90;;;;;;4886871;29;19931;-89
2022/09/06 06:19:18;;;;;;;;;;;17.40;99.90;;;;;;4900620;29;19927;-91
2022/09/06 06:21:43;;;;;;;;;;;17.40;99.90;;;;;;4900676;29;20055;-91
2022/09/06 06:24:09;;;;;;;;;;;17.50;99.90;;;;;;4900513;29;19932;-92
2022/09/06 06:26:35;;;;;;;;;;;17.60;99.90;;;;;;4898526;29;19927;-92
2022/09/06 06:29:01;;;;;;;;;;;17.50;99.90;;;;;;4899392;29;19932;-91
2022/09/06 06:31:30;;;;;;;;;;;17.50;99.90;;;;;;4898589;29;19936;-91
2022/09/06 06:33:56;;;;;;;;;;;17.50;99.90;;;;;;4884048;29;20308;-91
2022/09/06 06:36:22;;;;;;;;;;;17.60;99.90;;;;;;4901591;29;19927;-91
2022/09/06 06:38:48;;;;;;;;;;;17.60;99.90;;;;;;4901765;29;19942;-90
2022/09/06 06:41:14;;;;;;;;;;;17.60;99.90;;;;;;4908097;29;19975;-86
2022/09/06 06:43:40;;;;;;;;;;;17.70;99.90;;;;;;4899125;29;19942;-89
2022/09/06 06:46:07;;;;;;;;;;;17.70;99.90;;;;;;4894483;29;19928;-90
2022/09/06 06:48:33;;;;;;;;;;;17.70;99.90;;;;;;4901233;29;20055;-89
2022/09/06 06:50:58;;;;;;;;;;;17.70;99.90;;;;;;4901462;29;19970;-89
2022/09/06 06:53:24;;;;;;;;;;;17.80;99.90;;;;;;4905900;29;20299;-91
2022/09/06 06:55:50;;;;;;;;;;;17.90;99.90;;;;;;4876124;29;19932;-90
2022/09/06 06:58:15;;;;;;;;;;;18.00;99.90;;;;;;4903191;29;19927;-90
2022/09/06 07:00:41;;;;;;;;;;;18.10;99.90;;;;;;4888610;29;20037;-89
2022/09/06 07:03:07;;;;;;;;;;;18.80;99.90;;;;;;4876255;29;20022;-88
2022/09/06 07:05:33;;;;;;;;;;;19.30;99.90;;;;;;4903917;29;19939;-90
2022/09/06 07:07:58;;;;;;;;;;;19.80;99.90;;;;;;4906156;29;19938;-89
2022/09/06 07:10:24;;;;;;;;;;;20.00;99.90;;;;;;4873245;29;19989;-89
2022/09/06 07:12:50;;;;;;;;;;;20.30;99.90;;;;;;4872423;29;20265;-90
2022/09/06 07:15:16;;;;;;;;;;;19.90;99.90;;;;;;4874245;29;19927;-88
2022/09/06 07:17:42;;;;;;;;;;;20.00;99.90;;;;;;4890126;29;19943;-90
2022/09/06 07:20:09;;;;;;;;;;;19.80;99.90;;;;;;4896428;29;20292;-90
2022/09/06 07:22:35;;;;;;;;;;;19.80;99.90;;;;;;4898720;29;19937;-90
2022/09/06 07:25:00;;;;;;;;;;;19.70;99.90;;;;;;4900833;29;20336;-90
2022/09/06 07:27:26;;;;;;;;;;;19.50;99.90;;;;;;4902188;29;19927;-90
2022/09/06 07:29:52;;;;;;;;;;;19.60;99.90;;;;;;4902690;29;19934;-90
2022/09/06 07:32:17;;;;;;;;;;;19.50;99.90;;;;;;4919577;29;19927;-86
2022/09/06 07:34:43;;;;;;;;;;;19.40;99.90;;;;;;4893831;29;19928;-88
2022/09/06 07:37:08;;;;;;;;;;;19.50;99.90;;;;;;4887357;29;20014;-89
2022/09/06 07:39:35;;;;;;;;;;;19.40;99.90;;;;;;4869030;29;19931;-89
2022/09/06 07:42:05;;;;;;;;;;;19.50;99.90;;;;;;4882525;29;20050;-88
2022/09/06 07:44:31;;;;;;;;;;;19.50;99.90;;;;;;4903464;29;19976;-90
2022/09/06 07:46:56;;;;;;;;;;;19.60;99.90;;;;;;4905855;29;19927;-89
2022/09/06 07:49:22;;;;;;;;;;;19.70;99.90;;;;;;4890444;29;19928;-89
2022/09/06 07:51:47;;;;;;;;;;;20.10;99.90;;;;;;4892500;29;19934;-87
2022/09/06 07:54:13;;;;;;;;;;;21.40;99.90;;;;;;4907556;29;19927;-89
2022/09/06 07:56:38;;;;;;;;;;;22.70;99.90;;;;;;4906872;29;19927;-89
2022/09/06 07:59:04;;;;;;;;;;;23.40;99.90;;;;;;4893431;29;19979;-88
2022/09/06 08:01:30;;;;;;;;;;;24.00;99.90;;;;;;4907132;29;20284;-89
2022/09/06 08:04:03;;;;;;;;;;;24.20;99.90;;;;;;4907973;29;20371;-90
2022/09/06 08:06:29;;;;;;;;;;;24.70;99.90;;;;;;4907388;29;20079;-89
2022/09/06 08:08:55;;;;;;;;;;;25.50;99.90;;;;;;4899470;29;20286;-87
2022/09/06 08:11:21;;;;;;;;;;;25.60;99.90;;;;;;4872926;29;19943;-88
2022/09/06 08:13:50;;;;;;;;;;;25.60;99.90;;;;;;4902077;29;19932;-87
2022/09/06 08:16:16;;;;;;;;;;;26.00;99.90;;;;;;4897038;29;20391;-87
2022/09/06 08:18:41;;;;;;;;;;;25.90;99.90;;;;;;4913149;29;20018;-87
2022/09/06 08:21:07;;;;;;;;;;;25.80;99.90;;;;;;4907140;29;20384;-87
2022/09/06 08:23:33;;;;;;;;;;;26.10;99.90;;;;;;4883123;29;19927;-87
2022/09/06 08:25:58;;;;;;;;;;;27.00;99.90;;;;;;4882679;29;19975;-88
2022/09/06 08:28:24;;;;;;;;;;;27.00;99.90;;;;;;4898547;29;19927;-87
2022/09/06 08:30:49;;;;;;;;;;;27.00;99.90;;;;;;4882646;29;20292;-89
2022/09/06 08:33:18;;;;;;;;;;;26.40;99.90;;;;;;4891311;29;19999;-90
2022/09/06 08:35:53;;;;;;;;;;;27.60;99.90;;;;;;4905945;29;19928;-88
2022/09/06 08:38:18;;;;;;;;;;;27.90;99.90;;;;;;4912418;29;20359;-90
2022/09/06 08:40:44;;;;;;;;;;;28.10;99.30;;;;;;4887965;29;19928;-88
2022/09/06 08:43:13;;;;;;;;;;;28.10;99.30;;;;;;4888897;29;19974;-88
2022/09/06 08:45:38;;;;;;;;;;;27.90;99.50;;;;;;4891659;29;19931;-89
2022/09/06 08:48:04;;;;;;;;;;;28.30;99.30;;;;;;4891362;29;19927;-90
2022/09/06 08:50:30;;;;;;;;;;;28.20;99.40;;;;;;4892906;29;20013;-88
2022/09/06 08:52:59;;;;;;;;;;;28.60;99.00;;;;;;4893299;29;20328;-89
2022/09/06 08:55:33;;;;;;;;;;;28.70;98.60;;;;;;4909686;29;19927;-89
2022/09/06 08:58:05;;;;;;;;;;;28.60;99.20;;;;;;4885656;29;20018;-89
2022/09/06 09:00:31;;;;;;;;;;;28.70;98.60;;;;;;4913523;29;19966;-89
2022/09/06 09:02:59;;;;;;;;;;;28.70;98.80;;;;;;4906542;29;20456;-88
2022/09/06 09:05:35;;;;;;;;;;;29.10;98.60;;;;;;4872631;29;19991;-87
2022/09/06 09:08:00;;;;;;;;;;;29.20;97.80;;;;;;4894043;29;19971;-88
2022/09/06 09:10:27;;;;;;;;;;;29.30;97.30;;;;;;4892591;29;19974;-88
2022/09/06 09:12:52;;;;;;;;;;;29.40;97.70;;;;;;4905818;29;19987;-89
2022/09/06 09:15:18;;;;;;;;;;;29.80;97.40;;;;;;4895703;29;19935;-90
2022/09/06 09:17:44;;;;;;;;;;;29.20;97.10;;;;;;4901627;29;19931;-89
2022/09/06 09:20:10;;;;;;;;;;;28.50;98.10;;;;;;4896380;29;19934;-88
2022/09/06 09:22:35;;;;;;;;;;;27.70;98.70;;;;;;4900915;29;19935;-87
2022/09/06 09:25:02;;;;;;;;;;;26.80;98.90;;;;;;4868314;29;20316;-87
2022/09/06 09:27:27;;;;;;;;;;;26.40;99.50;;;;;;4894375;29;20023;-86
2022/09/06 09:29:53;;;;;;;;;;;25.80;99.90;;;;;;4875744;29;19931;-89
2022/09/06 09:32:28;;;;;;;;;;;25.70;99.90;;;;;;4914336;29;20395;-87
2022/09/06 09:34:55;;;;;;;;;;;25.80;99.90;;;;;;4891196;29;20003;-87
2022/09/06 09:37:21;;;;;;;;;;;25.40;99.90;;;;;;4899417;29;20368;-88
2022/09/06 09:39:47;;;;;;;;;;;26.10;99.90;;;;;;4907446;29;19935;-88
2022/09/06 09:42:14;;;;;;;;;;;27.30;99.90;;;;;;4891360;29;19927;-89
2022/09/06 09:44:43;;;;;;;;;;;28.00;99.50;;;;;;4874425;29;19931;-88
2022/09/06 09:47:20;;;;;;;;;;;28.40;98.70;;;;;;4904713;29;19931;-89
2022/09/06 09:49:46;;;;;;;;;;;28.90;98.50;;;;;;4904983;29;19946;-89
2022/09/06 09:52:12;;;;;;;;;;;28.90;98.20;;;;;;4906613;29;19927;-89
2022/09/06 09:54:39;;;;;;;;;;;29.40;98.00;;;;;;4885413;29;19928;-90
2022/09/06 09:57:12;;;;;;;;;;;29.60;97.20;;;;;;4897323;29;19927;-90
2022/09/06 09:59:42;;;;;;;;;;;29.40;97.60;;;;;;4882731;29;20056;-90
2022/09/06 10:02:26;;;;;;;;;;;29.90;96.90;;;;;;4897845;29;20018;-90
2022/09/06 10:04:52;;;;;;;;;;;29.30;96.90;;;;;;4902193;29;19931;-89
2022/09/06 10:07:19;;;;;;;;;;;29.00;97.30;;;;;;4897061;29;19927;-89
2022/09/06 10:10:07;;;;;;;;;;;28.90;97.70;;;;;;4888717;29;19942;-88
2022/09/06 10:12:34;;;;;;;;;;;29.30;97.40;;;;;;4909047;29;19927;-90
2022/09/06 10:14:59;;;;;;;;;;;29.80;96.90;;;;;;4897681;29;19935;-90
2022/09/06 10:17:25;;;;;;;;;;;29.50;97.00;;;;;;4916129;29;19931;-89
2022/09/06 10:19:51;;;;;;;;;;;29.30;96.80;;;;;;4915067;29;19931;-89
2022/09/06 10:22:22;;;;;;;;;;;29.10;97.30;;;;;;4899480;29;19931;-88
2022/09/06 10:24:47;;;;;;;;;;;29.20;97.10;;;;;;4895856;29;19974;-88
2022/09/06 10:27:13;;;;;;;;;;;29.10;96.90;;;;;;4914046;29;20033;-89
2022/09/06 10:29:38;;;;;;;;;;;28.80;97.10;;;;;;4914371;29;19927;-88
2022/09/06 10:32:23;;;;;;;;;;;29.70;96.40;;;;;;4914672;29;19933;-88
2022/09/06 10:35:06;;;;;;;;;;;29.00;96.90;;;;;;4882562;29;19934;-85
2022/09/06 10:37:43;;;;;;;;;;;28.70;96.70;;;;;;4880694;29;19932;-89
2022/09/06 10:40:22;;;;;;;;;;;29.00;96.70;;;;;;4892923;29;19931;-88
2022/09/06 10:42:52;;;;;;;;;;;29.20;96.30;;;;;;4865375;29;19927;-89
2022/09/06 10:45:28;;;;;;;;;;;29.60;96.00;;;;;;4883240;29;19931;-89
2022/09/06 10:47:55;;;;;;;;;;;29.60;95.90;;;;;;4898245;29;20141;-88
2022/09/06 10:50:41;;;;;;;;;;;28.90;95.90;;;;;;4897931;29;20333;-88
2022/09/06 10:53:12;;;;;;;;;;;29.20;96.40;;;;;;4897771;29;19967;-87
2022/09/06 10:55:39;;;;;;;;;;;28.80;96.40;;;;;;4897028;29;20475;-88
2022/09/06 10:58:04;;;;;;;;;;;28.20;97.10;;;;;;4914515;29;19969;-88
2022/09/06 11:00:34;;;;;;;;;;;28.20;96.80;;;;;;4877706;29;20404;-88
2022/09/06 11:03:21;;;;;;;;;;;28.40;97.00;;;;;;4884254;29;19928;-87
2022/09/06 11:05:55;;;;;;;;;;;28.40;96.60;;;;;;4914856;29;19959;-89
2022/09/06 11:08:41;;;;;;;;;;;28.60;96.80;;;;;;4894862;29;20010;-89
2022/09/06 11:11:08;;;;;;;;;;;28.20;97.00;;;;;;4905745;29;19974;-89
2022/09/06 11:13:34;;;;;;;;;;;27.80;97.00;;;;;;4882197;29;19939;-87
2022/09/06 11:15:59;;;;;;;;;;;27.20;97.60;;;;;;4904720;29;19927;-88
2022/09/06 11:18:37;;;;;;;;;;;26.90;98.00;;;;;;4904045;29;19967;-87
2022/09/06 11:21:06;;;;;;;;;;;26.70;98.30;;;;;;4879618;29;19937;-89
2022/09/06 11:23:35;;;;;;;;;;;26.50;98.60;;;;;;4903765;29;20340;-89
2022/09/06 11:26:04;;;;;;;;;;;26.60;98.80;;;;;;4898087;29;19931;-87
2022/09/06 11:28:34;;;;;;;;;;;26.60;98.50;;;;;;4912426;29;19931;-87
2022/09/06 11:30:59;;;;;;;;;;;26.60;98.70;;;;;;4883036;29;20038;-89
2022/09/06 11:33:26;;;;;;;;;;;26.80;98.00;;;;;;4899233;29;19979;-85
2022/09/06 11:35:52;;;;;;;;;;;26.90;98.20;;;;;;4914346;29;19935;-88
2022/09/06 11:38:20;;;;;;;;;;;26.60;98.50;;;;;;4883526;29;20295;-88
2022/09/06 11:40:48;;;;;;;;;;;26.90;98.00;;;;;;4875018;29;19938;-89
2022/09/06 11:43:17;;;;;;;;;;;26.70;98.80;;;;;;4881738;29;20197;-89
2022/09/06 11:45:43;;;;;;;;;;;26.70;98.90;;;;;;4889308;29;20018;-87
2022/09/06 11:48:35;;;;;;;;;;;26.80;98.50;;;;;;4888763;29;20019;-88
2022/09/06 11:51:05;;;;;;;;;;;26.90;98.70;;;;;;4904457;29;19932;-87
2022/09/06 11:53:35;;;;;;;;;;;27.10;98.50;;;;;;4870904;29;19931;-88
2022/09/06 11:56:00;;;;;;;;;;;27.20;98.10;;;;;;4879794;29;19931;-89
2022/09/06 11:58:38;;;;;;;;;;;27.10;98.40;;;;;;4889267;29;19928;-87
2022/09/06 12:01:15;;;;;;;;;;;27.10;97.80;;;;;;4903221;29;19935;-89
2022/09/06 12:03:40;;;;;;;;;;;27.30;97.90;;;;;;4903245;29;19941;-88
2022/09/06 12:06:19;;;;;;;;;;;27.40;97.80;;;;;;4894276;29;19927;-89
2022/09/06 12:08:45;;;;;;;;;;;27.30;97.60;;;;;;4902029;29;19931;-91
2022/09/06 12:11:29;;;;;;;;;;;27.60;97.80;;;;;;4884844;29;19927;-89
2022/09/06 12:14:04;;;;;;;;;;;27.70;98.10;;;;;;4922311;29;19938;-88
2022/09/06 12:16:48;;;;;;;;;;;27.70;97.10;;;;;;4914804;29;19953;-89
2022/09/06 12:19:33;;;;;;;;;;;27.40;97.60;;;;;;4908226;29;19934;-89
2022/09/06 12:21:58;;;;;;;;;;;27.60;97.50;;;;;;4903759;29;19928;-87
2022/09/06 12:24:34;;;;;;;;;;;27.60;97.30;;;;;;4889172;29;20908;-89
2022/09/06 12:27:11;;;;;;;;;;;27.70;96.80;;;;;;4890526;29;19928;-89
2022/09/06 12:29:37;;;;;;;;;;;28.00;96.50;;;;;;4888966;29;19934;-88
2022/09/06 12:32:04;;;;;;;;;;;27.70;96.50;;;;;;4872100;29;20299;-88
2022/09/06 12:34:30;;;;;;;;;;;27.60;96.80;;;;;;4886126;29;19978;-88
2022/09/06 12:36:57;;;;;;;;;;;27.60;96.70;;;;;;4887642;29;20369;-89
2022/09/06 12:39:23;;;;;;;;;;;27.70;96.60;;;;;;4891643;29;19987;-88
2022/09/06 12:41:54;;;;;;;;;;;27.70;96.50;;;;;;4906772;29;19964;-89
2022/09/06 12:44:27;;;;;;;;;;;27.60;96.20;;;;;;4890116;29;19953;-88
2022/09/06 12:46:53;;;;;;;;;;;27.70;96.70;;;;;;4888770;29;19938;-89
2022/09/06 12:49:19;;;;;;;;;;;27.90;96.20;;;;;;4890342;29;19935;-89
2022/09/06 12:51:45;;;;;;;;;;;27.70;96.00;;;;;;4907844;29;19990;-88
2022/09/06 12:54:21;;;;;;;;;;;27.80;96.30;;;;;;4889645;29;19931;-86
2022/09/06 12:56:46;;;;;;;;;;;28.00;95.80;;;;;;4906854;29;19946;-89
2022/09/06 12:59:19;;;;;;;;;;;27.90;96.10;;;;;;4907212;29;19950;-87
2022/09/06 13:01:51;;;;;;;;;;;27.90;96.60;;;;;;4895358;29;19928;-89
2022/09/06 13:04:20;;;;;;;;;;;28.10;96.20;;;;;;4875269;29;19927;-91
2022/09/06 13:06:46;;;;;;;;;;;27.90;96.00;;;;;;4916946;29;19927;-90
2022/09/06 13:09:12;;;;;;;;;;;28.00;96.00;;;;;;4900274;29;19938;-89
2022/09/06 13:11:39;;;;;;;;;;;28.10;95.90;;;;;;4907946;29;19931;-90
2022/09/06 13:14:08;;;;;;;;;;;28.10;95.60;;;;;;4917160;29;19998;-90
2022/09/06 13:16:35;;;;;;;;;;;27.80;95.50;;;;;;4906700;29;19938;-90
2022/09/06 13:19:13;;;;;;;;;;;27.60;95.80;;;;;;4882615;29;20377;-89
2022/09/06 13:21:40;;;;;;;;;;;27.80;95.80;;;;;;4913986;29;19927;-91
2022/09/06 13:24:25;;;;;;;;;;;28.10;95.10;;;;;;4900887;29;19927;-90
2022/09/06 13:26:51;;;;;;;;;;;28.00;95.50;;;;;;4917599;29;20388;-90
2022/09/06 13:29:16;;;;;;;;;;;28.00;95.50;;;;;;4900677;29;19943;-89
2022/09/06 13:31:46;;;;;;;;;;;29.20;95.50;;;;;;4916315;29;19938;-88
2022/09/06 13:34:18;;;;;;;;;;;28.00;95.50;;;;;;4900263;29;19934;-90
2022/09/06 13:36:47;;;;;;;;;;;27.80;95.80;;;;;;4884444;29;19973;-91
2022/09/06 13:39:27;;;;;;;;;;;28.10;95.40;;;;;;4900836;29;20380;-89
2022/09/06 13:41:59;;;;;;;;;;;28.20;95.50;;;;;;4881954;29;20042;-89
2022/09/06 13:44:28;;;;;;;;;;;28.10;95.40;;;;;;4899387;29;20371;-89
2022/09/06 13:46:54;;;;;;;;;;;28.20;95.70;;;;;;4900162;29;20276;-91
2022/09/06 13:49:22;;;;;;;;;;;28.10;95.70;;;;;;4915446;29;19938;-88
2022/09/06 13:51:47;;;;;;;;;;;28.30;95.60;;;;;;4901118;29;20021;-90
2022/09/06 13:54:13;;;;;;;;;;;28.00;95.90;;;;;;4916458;29;19978;-90
2022/09/06 13:56:40;;;;;;;;;;;28.00;96.00;;;;;;4915903;29;19931;-90
2022/09/06 13:59:06;;;;;;;;;;;27.90;96.30;;;;;;4916670;29;20017;-91
2022/09/06 14:01:32;;;;;;;;;;;28.00;96.30;;;;;;4884666;29;20031;-91
2022/09/06 14:03:57;;;;;;;;;;;28.40;96.60;;;;;;4887019;29;19927;-89
2022/09/06 14:06:23;;;;;;;;;;;28.50;96.50;;;;;;4900641;29;19928;-90
2022/09/06 14:08:49;;;;;;;;;;;28.60;95.90;;;;;;4916251;29;20368;-90
2022/09/06 14:11:14;;;;;;;;;;;28.80;96.20;;;;;;4915665;29;20315;-90
2022/09/06 14:13:40;;;;;;;;;;;28.80;96.30;;;;;;4899723;29;20287;-90
2022/09/06 14:16:06;;;;;;;;;;;29.10;95.80;;;;;;4916242;29;19982;-90
2022/09/06 14:18:31;;;;;;;;;;;29.10;95.80;;;;;;4916495;29;19927;-91
2022/09/06 14:20:57;;;;;;;;;;;29.30;96.00;;;;;;4900811;29;20332;-91